createdAt,value
2018-03-17T00:01:54.894Z,94780.50
2018-03-17T00:04:22.514Z,94774.27
2018-03-17T00:06:50.077Z,94775.20
2018-03-17T00:09:18.979Z,94776.81
2018-03-17T00:11:46.660Z,94768.98
2018-03-17T00:14:14.241Z,94764.64
2018-03-17T00:16:41.827Z,94755.09
2018-03-17T00:19:10.702Z,94759.64
2018-03-17T00:21:38.262Z,94751.92
2018-03-17T00:24:05.818Z,94758.17
2018-03-17T00:26:33.449Z,94756.78
2018-03-17T00:29:01.008Z,94757.20
2018-03-17T00:31:28.579Z,94759.52
2018-03-17T00:33:56.134Z,94746.73
2018-03-17T00:36:23.709Z,94750.24
2018-03-17T00:38:51.358Z,94749.44
2018-03-17T00:41:19.292Z,94747.08
2018-03-17T00:43:46.952Z,94745.83
2018-03-17T00:46:14.529Z,94750.65
2018-03-17T00:48:42.123Z,94745.62
2018-03-17T00:51:09.702Z,94745.34
2018-03-17T00:53:37.265Z,94742.01
2018-03-17T00:56:04.827Z,94744.32
2018-03-17T00:58:33.753Z,94746.98
2018-03-17T01:01:01.338Z,94741.67
2018-03-17T01:03:29.783Z,94741.28
2018-03-17T01:08:31.298Z,94738.40
2018-03-17T01:10:58.876Z,94730.79
2018-03-17T01:13:26.420Z,94725.14
2018-03-17T01:15:54.036Z,94720.28
2018-03-17T01:18:21.621Z,94719.18
2018-03-17T01:20:49.190Z,94719.66
2018-03-17T01:23:16.775Z,94716.35
2018-03-17T01:25:44.324Z,94719.66
2018-03-17T01:28:11.914Z,94720.26
2018-03-17T01:30:39.490Z,94711.22
2018-03-17T01:33:07.180Z,94710.45
2018-03-17T01:35:34.777Z,94710.61
2018-03-17T01:38:02.390Z,94705.33
2018-03-17T01:40:29.955Z,94706.42
2018-03-17T01:42:57.549Z,94707.52
2018-03-17T01:45:25.241Z,94705.16
2018-03-17T01:47:52.842Z,94703.09
2018-03-17T01:50:20.428Z,94697.56
2018-03-17T01:52:48.017Z,94694.44
2018-03-17T01:55:16.901Z,94690.17
2018-03-17T01:57:44.467Z,94694.14
2018-03-17T02:00:12.153Z,94697.09
2018-03-17T02:02:39.713Z,94693.63
2018-03-17T02:05:09.119Z,94690.92
2018-03-17T02:07:36.932Z,94688.56
2018-03-17T02:10:04.501Z,94687.47
2018-03-17T02:12:32.067Z,94693.23
2018-03-17T02:14:59.716Z,94697.37
2018-03-17T02:17:27.257Z,94685.39
2018-03-17T02:19:54.826Z,94688.67
2018-03-17T02:22:22.447Z,94684.58
2018-03-17T02:24:50.009Z,94680.66
2018-03-17T02:27:18.100Z,94681.00
2018-03-17T02:29:45.734Z,94681.09
2018-03-17T02:32:13.296Z,94676.95
2018-03-17T02:34:40.899Z,94676.71
2018-03-17T02:37:08.870Z,94669.42
2018-03-17T02:39:36.455Z,94667.96
2018-03-17T02:42:04.082Z,94667.34
2018-03-17T02:44:31.642Z,94665.05
2018-03-17T02:46:59.200Z,94662.88
2018-03-17T02:49:26.787Z,94662.22
2018-03-17T02:51:54.365Z,94665.41
2018-03-17T02:54:21.956Z,94666.31
2018-03-17T02:56:49.507Z,94670.60
2018-03-17T02:59:17.091Z,94666.96
2018-03-17T03:01:44.673Z,94665.34
2018-03-17T03:04:12.656Z,94665.00
2018-03-17T03:06:40.239Z,94669.76
2018-03-17T03:09:08.623Z,94651.11
2018-03-17T03:11:36.212Z,94654.46
2018-03-17T03:14:03.814Z,94653.02
2018-03-17T03:16:31.393Z,94656.99
2018-03-17T03:19:04.284Z,94655.55
2018-03-17T03:21:32.943Z,94650.61
2018-03-17T03:24:00.491Z,94650.92
2018-03-17T03:26:28.073Z,94651.29
2018-03-17T03:28:56.021Z,94652.50
2018-03-17T03:31:40.321Z,94659.37
2018-03-17T03:34:11.404Z,94663.13
2018-03-17T03:36:38.993Z,94662.17
2018-03-17T03:39:07.226Z,94662.74
2018-03-17T03:41:34.850Z,94662.02
2018-03-17T03:44:02.373Z,94655.59
2018-03-17T03:46:29.952Z,94651.95
2018-03-17T03:48:57.560Z,94651.84
2018-03-17T03:51:25.202Z,94644.14
2018-03-17T03:53:55.433Z,94640.80
2018-03-17T03:56:23.584Z,94643.56
2018-03-17T03:58:51.200Z,94634.81
2018-03-17T04:01:18.806Z,94631.14
2018-03-17T04:03:46.385Z,94631.27
2018-03-17T04:06:14.092Z,94627.02
2018-03-17T04:08:41.655Z,94635.31
2018-03-17T04:11:09.972Z,94629.43
2018-03-17T04:13:37.553Z,94633.22
2018-03-17T04:16:05.121Z,94631.55
2018-03-17T04:18:32.679Z,94642.26
2018-03-17T04:23:51.271Z,94644.09
2018-03-17T04:26:18.934Z,94656.38
2018-03-17T04:28:46.695Z,94655.76
2018-03-17T04:31:14.254Z,94665.78
2018-03-17T04:33:41.828Z,94667.84
2018-03-17T04:36:09.401Z,94666.36
2018-03-17T04:41:10.204Z,94671.27
2018-03-17T04:43:38.338Z,94676.41
2018-03-17T04:46:05.920Z,94670.02
2018-03-17T04:48:33.481Z,94674.95
2018-03-17T04:51:01.060Z,94679.92
2018-03-17T04:53:28.954Z,94682.13
2018-03-17T04:55:56.531Z,94686.82
2018-03-17T04:58:24.116Z,94692.98
2018-03-17T05:00:51.689Z,94688.93
2018-03-17T05:03:19.451Z,94684.78
2018-03-17T05:05:47.055Z,94681.51
2018-03-17T05:08:14.835Z,94691.11
2018-03-17T05:10:42.446Z,94680.80
2018-03-17T05:13:10.766Z,94694.31
2018-03-17T05:15:38.573Z,94697.94
2018-03-17T05:18:06.341Z,94703.31
2018-03-17T05:20:34.173Z,94707.31
2018-03-17T05:23:02.518Z,94707.01
2018-03-17T05:25:30.750Z,94693.01
2018-03-17T05:27:58.311Z,94692.20
2018-03-17T05:30:25.912Z,94685.29
2018-03-17T05:32:53.499Z,94675.23
2018-03-17T05:35:21.067Z,94671.95
2018-03-17T05:37:48.646Z,94680.60
2018-03-17T05:40:16.250Z,94673.72
2018-03-17T05:42:43.853Z,94669.73
2018-03-17T05:45:11.952Z,94660.80
2018-03-17T05:47:39.533Z,94658.23
2018-03-17T05:50:07.154Z,94658.30
2018-03-17T05:52:34.738Z,94649.34
2018-03-17T05:55:02.319Z,94647.75
2018-03-17T05:57:30.126Z,94649.28
2018-03-17T05:59:57.690Z,94636.86
2018-03-17T06:02:26.628Z,94645.45
2018-03-17T06:04:54.196Z,94643.19
2018-03-17T06:07:21.760Z,94641.45
2018-03-17T06:09:49.363Z,94638.70
2018-03-17T06:12:16.921Z,94640.05
2018-03-17T06:14:44.499Z,94646.83
2018-03-17T06:17:12.920Z,94646.98
2018-03-17T06:19:40.531Z,94661.98
2018-03-17T06:22:08.148Z,94664.89
2018-03-17T06:24:35.713Z,94669.17
2018-03-17T06:27:03.560Z,94672.55
2018-03-17T06:29:32.702Z,94669.12
2018-03-17T06:32:00.273Z,94656.03
2018-03-17T06:34:27.834Z,94655.33
2018-03-17T06:36:55.401Z,94665.16
2018-03-17T06:39:23.495Z,94664.42
2018-03-17T06:41:51.049Z,94663.38
2018-03-17T06:44:18.615Z,94661.52
2018-03-17T06:46:46.210Z,94668.23
2018-03-17T06:49:13.870Z,94666.20
2018-03-17T06:51:42.342Z,94676.67
2018-03-17T06:54:10.058Z,94676.78
2018-03-17T06:56:37.619Z,94680.27
2018-03-17T06:59:05.201Z,94680.27
2018-03-17T07:01:35.862Z,94677.55
2018-03-17T07:04:03.689Z,94672.69
2018-03-17T07:06:31.243Z,94667.69
2018-03-17T07:08:58.871Z,94664.06
2018-03-17T07:11:26.716Z,94666.96
2018-03-17T07:13:54.280Z,94656.19
2018-03-17T07:16:21.870Z,94661.28
2018-03-17T07:18:49.475Z,94663.53
2018-03-17T07:21:17.041Z,94666.36
2018-03-17T07:23:44.888Z,94667.06
2018-03-17T07:26:12.521Z,94669.84
2018-03-17T07:28:40.243Z,94673.59
2018-03-17T07:31:08.354Z,94669.46
2018-03-17T07:33:35.942Z,94663.20
2018-03-17T07:36:04.874Z,94665.73
2018-03-17T07:38:33.785Z,94655.19
2018-03-17T07:41:01.343Z,94656.28
2018-03-17T07:43:29.459Z,94656.55
2018-03-17T07:45:57.121Z,94660.36
2018-03-17T07:48:24.681Z,94661.19
2018-03-17T07:50:52.250Z,94652.04
2018-03-17T07:53:22.158Z,94646.58
2018-03-17T07:55:49.788Z,94643.43
2018-03-17T07:58:17.350Z,94642.03
2018-03-17T08:00:44.941Z,94644.07
2018-03-17T08:03:13.907Z,94650.08
2018-03-17T08:05:41.491Z,94643.92
2018-03-17T08:08:09.232Z,94640.99
2018-03-17T08:10:36.805Z,94634.63
2018-03-17T08:13:04.463Z,94639.03
2018-03-17T08:15:32.802Z,94634.05
2018-03-17T08:18:00.371Z,94621.39
2018-03-17T08:20:29.261Z,94625.28
2018-03-17T08:22:56.850Z,94635.50
2018-03-17T08:25:24.615Z,94634.63
2018-03-17T08:27:52.199Z,94638.14
2018-03-17T08:30:19.998Z,94631.27
2018-03-17T08:32:47.568Z,94635.14
2018-03-17T08:35:15.136Z,94633.33
2018-03-17T08:37:42.705Z,94635.45
2018-03-17T08:40:10.281Z,94627.51
2018-03-17T08:42:37.847Z,94632.91
2018-03-17T08:45:05.656Z,94604.33
2018-03-17T08:47:33.227Z,94618.11
2018-03-17T08:50:00.805Z,94612.87
2018-03-17T08:52:28.399Z,94608.67
2018-03-17T08:54:55.978Z,94608.11
2018-03-17T08:57:23.578Z,94609.94
2018-03-17T08:59:51.196Z,94603.25
2018-03-17T09:02:18.763Z,94607.77
2018-03-17T09:04:46.314Z,94610.30
2018-03-17T09:07:13.870Z,94610.81
2018-03-17T09:09:41.491Z,94606.78
2018-03-17T09:12:09.138Z,94610.84
2018-03-17T09:14:36.664Z,94614.38
2018-03-17T09:17:04.289Z,94610.81
2018-03-17T09:19:31.864Z,94608.24
2018-03-17T09:21:59.430Z,94599.94
2018-03-17T09:24:27.335Z,94605.89
2018-03-17T09:26:54.912Z,94602.55
2018-03-17T09:29:24.232Z,94598.89
2018-03-17T09:31:51.822Z,94601.67
2018-03-17T09:34:19.448Z,94598.08
2018-03-17T09:36:47.006Z,94606.58
2018-03-17T09:39:15.454Z,94601.86
2018-03-17T09:41:43.043Z,94600.84
2018-03-17T09:44:10.834Z,94592.06
2018-03-17T09:46:38.412Z,94592.21
2018-03-17T09:49:06.397Z,94595.68
2018-03-17T09:51:33.958Z,94595.42
2018-03-17T09:54:01.536Z,94592.17
2018-03-17T09:56:29.133Z,94593.76
2018-03-17T09:58:56.764Z,94603.30
2018-03-17T10:01:25.207Z,94595.53
2018-03-17T10:03:52.770Z,94587.19
2018-03-17T10:06:20.370Z,94597.75
2018-03-17T10:08:47.920Z,94601.59
2018-03-17T10:11:15.483Z,94598.27
2018-03-17T10:13:43.061Z,94596.30
2018-03-17T10:16:10.632Z,94595.38
2018-03-17T10:18:38.245Z,94594.67
2018-03-17T10:21:06.203Z,94596.36
2018-03-17T10:23:33.796Z,94593.65
2018-03-17T10:26:01.369Z,94594.84
2018-03-17T10:28:29.025Z,94601.36
2018-03-17T10:30:56.607Z,94595.41
2018-03-17T10:33:24.263Z,94599.49
2018-03-17T10:35:52.048Z,94604.86
2018-03-17T10:38:19.662Z,94604.82
2018-03-17T10:40:47.300Z,94602.14
2018-03-17T10:43:14.915Z,94604.26
2018-03-17T10:45:42.489Z,94593.41
2018-03-17T10:48:10.269Z,94591.81
2018-03-17T10:50:37.844Z,94596.86
2018-03-17T10:53:05.481Z,94589.47
2018-03-17T10:55:33.203Z,94596.46
2018-03-17T10:58:00.794Z,94587.67
2018-03-17T11:00:28.394Z,94594.38
2018-03-17T11:02:56.008Z,94598.06
2018-03-17T11:05:26.473Z,94589.66
2018-03-17T11:07:54.134Z,94590.73
2018-03-17T11:10:27.634Z,94587.13
2018-03-17T11:12:55.221Z,94594.70
2018-03-17T11:15:25.685Z,94594.33
2018-03-17T11:17:53.598Z,94597.61
2018-03-17T11:20:21.391Z,94608.97
2018-03-17T11:22:48.960Z,94602.64
2018-03-17T11:25:16.595Z,94597.09
2018-03-17T11:27:48.812Z,94593.92
2018-03-17T11:30:16.665Z,94590.72
2018-03-17T11:32:44.297Z,94591.79
2018-03-17T11:35:16.340Z,94588.58
2018-03-17T11:37:44.632Z,94591.90
2018-03-17T11:40:12.197Z,94583.95
2018-03-17T11:42:39.772Z,94586.19
2018-03-17T11:45:08.383Z,94576.78
2018-03-17T11:47:38.287Z,94573.98
2018-03-17T11:50:06.671Z,94578.64
2018-03-17T11:52:34.243Z,94567.37
2018-03-17T11:55:01.858Z,94559.27
2018-03-17T11:57:29.753Z,94562.20
2018-03-17T11:59:57.309Z,94559.16
2018-03-17T12:02:24.885Z,94554.58
2018-03-17T12:04:52.473Z,94556.88
2018-03-17T12:07:20.086Z,94560.91
2018-03-17T12:09:47.709Z,94555.83
2018-03-17T12:12:15.426Z,94557.07
2018-03-17T12:14:42.989Z,94553.53
2018-03-17T12:17:10.896Z,94551.83
2018-03-17T12:19:38.661Z,94549.46
2018-03-17T12:22:06.225Z,94540.38
2018-03-17T12:24:33.803Z,94534.34
2018-03-17T12:27:01.351Z,94541.36
2018-03-17T12:29:30.666Z,94533.80
2018-03-17T12:31:58.254Z,94529.83
2018-03-17T12:34:25.809Z,94528.73
2018-03-17T12:36:53.430Z,94524.53
2018-03-17T12:39:21.012Z,94519.18
2018-03-17T12:41:48.559Z,94520.78
2018-03-17T12:44:16.113Z,94518.93
2018-03-17T12:46:43.691Z,94523.80
2018-03-17T12:49:12.187Z,94518.95
2018-03-17T12:51:39.790Z,94522.86
2018-03-17T12:54:07.345Z,94527.05
2018-03-17T12:56:34.936Z,94526.00
2018-03-17T12:59:02.466Z,94525.06
2018-03-17T13:01:30.060Z,94520.16
2018-03-17T13:03:57.597Z,94520.84
2018-03-17T13:06:27.956Z,94525.95
2018-03-17T13:08:55.464Z,94526.42
2018-03-17T13:11:23.065Z,94530.89
2018-03-17T13:13:50.654Z,94526.00
2018-03-17T13:16:18.216Z,94519.77
2018-03-17T13:18:45.824Z,94522.64
2018-03-17T13:21:13.624Z,94512.09
2018-03-17T13:23:41.950Z,94511.02
2018-03-17T13:26:09.877Z,94514.33
2018-03-17T13:28:37.448Z,94505.32
2018-03-17T13:31:05.180Z,94511.48
2018-03-17T13:33:32.787Z,94508.48
2018-03-17T13:36:12.061Z,94509.94
2018-03-17T13:38:39.663Z,94509.20
2018-03-17T13:41:07.702Z,94518.83
2018-03-17T13:43:35.349Z,94511.92
2018-03-17T13:46:02.909Z,94522.03
2018-03-17T13:48:30.520Z,94522.45
2018-03-17T13:50:58.143Z,94514.45
2018-03-17T13:53:25.707Z,94517.84
2018-03-17T13:55:53.281Z,94521.93
2018-03-17T13:58:22.180Z,94525.92
2018-03-17T14:00:49.733Z,94526.73
2018-03-17T14:03:17.994Z,94524.24
2018-03-17T14:05:45.906Z,94523.68
2018-03-17T14:08:13.468Z,94522.62
2018-03-17T14:10:41.029Z,94527.81
2018-03-17T14:13:09.358Z,94519.99
2018-03-17T14:15:37.742Z,94517.08
2018-03-17T14:18:05.660Z,94511.58
2018-03-17T14:20:33.237Z,94518.77
2018-03-17T14:23:00.874Z,94512.06
2018-03-17T14:25:28.502Z,94506.31
2018-03-17T14:27:56.084Z,94504.16
2018-03-17T14:30:23.683Z,94499.95
2018-03-17T14:32:51.287Z,94507.06
2018-03-17T14:35:19.070Z,94507.68
2018-03-17T14:37:46.675Z,94500.26
2018-03-17T14:40:14.254Z,94507.32
2018-03-17T14:42:41.875Z,94509.30
2018-03-17T14:45:09.643Z,94513.73
2018-03-17T14:47:37.220Z,94505.37
2018-03-17T14:50:04.814Z,94504.91
2018-03-17T14:52:32.386Z,94499.80
2018-03-17T14:55:00.011Z,94510.64
2018-03-17T14:57:28.632Z,94496.63
2018-03-17T14:59:56.234Z,94504.39
2018-03-17T15:02:23.847Z,94498.41
2018-03-17T15:04:51.440Z,94502.27
2018-03-17T15:07:20.044Z,94494.98
2018-03-17T15:09:49.508Z,94496.75
2018-03-17T15:12:17.183Z,94500.22
2018-03-17T15:14:44.837Z,94498.92
2018-03-17T15:17:12.714Z,94496.95
2018-03-17T15:19:40.298Z,94498.70
2018-03-17T15:22:07.848Z,94504.25
2018-03-17T15:24:38.294Z,94517.97
2018-03-17T15:27:07.618Z,94496.91
2018-03-17T15:29:35.271Z,94504.81
2018-03-17T15:32:07.567Z,94505.80
2018-03-17T15:34:35.390Z,94505.86
2018-03-17T15:37:02.985Z,94512.19
2018-03-17T15:39:33.025Z,94511.11
2018-03-17T15:42:00.634Z,94507.97
2018-03-17T15:44:28.376Z,94500.48
2018-03-17T15:46:56.549Z,94502.05
2018-03-17T15:49:24.594Z,94504.16
2018-03-17T15:51:52.200Z,94506.30
2018-03-17T15:54:19.822Z,94499.13
2018-03-17T15:56:54.309Z,94503.58
2018-03-17T15:59:21.908Z,94502.05
2018-03-17T16:01:50.126Z,94508.48
2018-03-17T16:04:17.747Z,94515.83
2018-03-17T16:06:45.341Z,94515.88
2018-03-17T16:09:13.313Z,94509.27
2018-03-17T16:11:40.883Z,94515.19
2018-03-17T16:14:08.638Z,94518.16
2018-03-17T16:16:36.222Z,94516.79
2018-03-17T16:19:03.856Z,94521.45
2018-03-17T16:21:31.635Z,94526.96
2018-03-17T16:23:59.265Z,94527.51
2018-03-17T16:26:26.848Z,94530.30
2018-03-17T16:28:54.433Z,94520.77
2018-03-17T16:31:22.045Z,94530.06
2018-03-17T16:33:49.626Z,94538.44
2018-03-17T16:36:17.194Z,94537.01
2018-03-17T16:38:44.790Z,94540.81
2018-03-17T16:41:12.964Z,94542.79
2018-03-17T16:43:40.535Z,94550.42
2018-03-17T16:46:08.231Z,94545.52
2018-03-17T16:48:38.249Z,94550.45
2018-03-17T16:51:06.557Z,94553.69
2018-03-17T16:53:34.175Z,94560.14
2018-03-17T16:56:01.755Z,94562.83
2018-03-17T16:58:29.368Z,94568.72
2018-03-17T17:00:56.956Z,94577.73
2018-03-17T17:03:25.912Z,94578.33
2018-03-17T17:05:53.677Z,94586.14
2018-03-17T17:08:21.312Z,94585.00
2018-03-17T17:10:48.928Z,94587.41
2018-03-17T17:13:16.523Z,94595.92
2018-03-17T17:15:44.156Z,94591.88
2018-03-17T17:18:11.747Z,94586.39
2018-03-17T17:20:39.413Z,94594.27
2018-03-17T17:23:07.388Z,94590.99
2018-03-17T17:25:35.043Z,94599.97
2018-03-17T17:28:02.656Z,94601.70
2018-03-17T17:30:30.245Z,94603.40
2018-03-17T17:32:57.864Z,94602.98
2018-03-17T17:35:25.956Z,94603.09
2018-03-17T17:37:53.739Z,94604.32
2018-03-17T17:40:21.308Z,94608.94
2018-03-17T17:42:48.954Z,94608.49
2018-03-17T17:45:16.624Z,94603.18
2018-03-17T17:47:45.196Z,94616.47
2018-03-17T17:50:15.729Z,94613.89
2018-03-17T17:52:47.608Z,94609.38
2018-03-17T17:55:15.401Z,94615.58
2018-03-17T17:57:43.098Z,94604.52
2018-03-17T18:00:10.669Z,94611.38
2018-03-17T18:02:38.254Z,94612.37
2018-03-17T18:05:05.843Z,94615.67
2018-03-17T18:07:33.434Z,94625.18
2018-03-17T18:10:01.012Z,94634.80
2018-03-17T18:12:28.591Z,94633.45
2018-03-17T18:14:56.184Z,94637.98
2018-03-17T18:17:23.784Z,94640.37
2018-03-17T18:19:51.445Z,94645.84
2018-03-17T18:22:19.421Z,94651.68
2018-03-17T18:24:47.080Z,94638.38
2018-03-17T18:27:14.652Z,94641.11
2018-03-17T18:29:42.254Z,94648.83
2018-03-17T18:32:10.264Z,94651.30
2018-03-17T18:34:37.854Z,94649.53
2018-03-17T18:37:05.875Z,94647.89
2018-03-17T18:39:33.464Z,94654.26
2018-03-17T18:42:01.095Z,94660.42
2018-03-17T18:44:28.665Z,94662.33
2018-03-17T18:46:56.300Z,94666.31
2018-03-17T18:49:24.918Z,94662.59
2018-03-17T18:51:52.624Z,94672.13
2018-03-17T18:54:20.227Z,94670.78
2018-03-17T18:56:47.834Z,94668.85
2018-03-17T18:59:15.453Z,94674.98
2018-03-17T19:01:43.304Z,94681.45
2018-03-17T19:04:10.883Z,94679.13
2018-03-17T19:06:39.063Z,94679.52
2018-03-17T19:09:06.845Z,94669.79
2018-03-17T19:11:34.514Z,94686.80
2018-03-17T19:14:02.141Z,94687.92
2018-03-17T19:16:29.702Z,94690.38
2018-03-17T19:18:58.809Z,94691.58
2018-03-17T19:21:26.760Z,94693.62
2018-03-17T19:23:58.495Z,94701.09
2018-03-17T19:26:26.097Z,94695.98
2018-03-17T19:28:53.636Z,94691.02
2018-03-17T19:31:21.257Z,94686.88
2018-03-17T19:33:48.869Z,94681.84
2018-03-17T19:36:18.972Z,94684.16
2018-03-17T19:38:46.711Z,94684.33
2018-03-17T19:41:17.002Z,94685.03
2018-03-17T19:43:45.343Z,94688.41
2018-03-17T19:46:12.926Z,94685.81
2018-03-17T19:48:41.397Z,94692.30
2018-03-17T19:51:09.603Z,94689.44
2018-03-17T19:53:38.327Z,94689.99
2018-03-17T19:56:14.288Z,94688.59
2018-03-17T19:58:43.971Z,94691.30
2018-03-17T20:01:12.460Z,94694.40
2018-03-17T20:03:40.035Z,94697.34
2018-03-17T20:06:07.618Z,94697.73
2018-03-17T20:08:35.190Z,94708.92
2018-03-17T20:11:02.806Z,94711.73
2018-03-17T20:13:30.608Z,94706.30
2018-03-17T20:15:58.181Z,94708.16
2018-03-17T20:18:25.821Z,94707.30
2018-03-17T20:20:53.411Z,94711.28
2018-03-17T20:23:20.967Z,94720.28
2018-03-17T20:25:48.793Z,94717.30
2018-03-17T20:28:16.366Z,94718.75
2018-03-17T20:30:43.950Z,94720.00
2018-03-17T20:33:11.923Z,94725.55
2018-03-17T20:35:39.546Z,94724.48
2018-03-17T20:38:07.109Z,94731.80
2018-03-17T20:40:34.710Z,94727.49
2018-03-17T20:43:02.289Z,94727.25
2018-03-17T20:45:30.110Z,94732.55
2018-03-17T20:47:57.747Z,94730.18
2018-03-17T20:50:25.337Z,94735.99
2018-03-17T20:52:52.938Z,94734.55
2018-03-17T20:55:20.603Z,94738.81
2018-03-17T20:57:48.220Z,94737.89
2018-03-17T21:00:15.922Z,94729.88
2018-03-17T21:02:43.538Z,94730.14
2018-03-17T21:05:12.587Z,94736.22
2018-03-17T21:07:40.405Z,94733.39
2018-03-17T21:10:07.995Z,94733.11
2018-03-17T21:12:35.594Z,94737.14
2018-03-17T21:15:03.213Z,94730.69
2018-03-17T21:17:31.268Z,94736.06
2018-03-17T21:19:58.872Z,94739.36
2018-03-17T21:22:26.521Z,94744.55
2018-03-17T21:24:54.132Z,94743.65
2018-03-17T21:27:21.709Z,94735.91
2018-03-17T21:29:49.450Z,94733.47
2018-03-17T21:32:17.016Z,94742.50
2018-03-17T21:34:44.656Z,94736.91
2018-03-17T21:37:12.988Z,94738.46
2018-03-17T21:39:40.617Z,94740.62
2018-03-17T21:42:08.320Z,94739.20
2018-03-17T21:44:35.958Z,94748.30
2018-03-17T21:47:03.779Z,94751.25
2018-03-17T21:49:31.702Z,94759.14
2018-03-17T21:51:59.329Z,94771.38
2018-03-17T21:54:26.978Z,94772.66
2018-03-17T21:56:54.718Z,94769.66
2018-03-17T21:59:22.338Z,94776.66
2018-03-17T22:01:51.279Z,94780.55
2018-03-17T22:04:19.050Z,94777.12
2018-03-17T22:06:46.753Z,94780.48
2018-03-17T22:09:14.660Z,94789.22
2018-03-17T22:11:42.308Z,94777.27
2018-03-17T22:14:10.403Z,94790.57
2018-03-17T22:16:38.224Z,94793.66
2018-03-17T22:19:07.115Z,94784.12
2018-03-17T22:21:35.039Z,94799.62
2018-03-17T22:24:02.604Z,94794.88
2018-03-17T22:26:30.213Z,94787.91
2018-03-17T22:28:57.822Z,94796.52
2018-03-17T22:31:25.518Z,94794.98
2018-03-17T22:33:53.310Z,94805.59
2018-03-17T22:36:20.959Z,94796.59
2018-03-17T22:38:48.556Z,94803.92
2018-03-17T22:41:17.422Z,94798.36
2018-03-17T22:43:45.175Z,94798.30
2018-03-17T22:46:12.872Z,94797.17
2018-03-17T22:48:40.786Z,94804.41
2018-03-17T22:51:08.510Z,94802.23
2018-03-17T22:53:36.398Z,94813.12
2018-03-17T22:56:03.975Z,94802.60
2018-03-17T22:58:31.596Z,94802.66
2018-03-17T23:00:59.216Z,94809.25
2018-03-17T23:03:26.903Z,94809.23
2018-03-17T23:05:54.517Z,94804.05
2018-03-17T23:08:23.002Z,94801.88
2018-03-17T23:10:50.783Z,94799.48
2018-03-17T23:13:18.845Z,94799.16
2018-03-17T23:15:46.433Z,94804.65
2018-03-17T23:18:14.039Z,94799.60
2018-03-17T23:20:43.688Z,94798.35
2018-03-17T23:23:12.312Z,94799.56
2018-03-17T23:25:39.887Z,94801.67
2018-03-17T23:28:07.492Z,94805.84
2018-03-17T23:30:35.116Z,94808.31
2018-03-17T23:33:02.756Z,94819.44
2018-03-17T23:35:30.769Z,94819.72
2018-03-17T23:37:58.350Z,94819.41
2018-03-17T23:40:29.213Z,94826.28
2018-03-17T23:42:56.871Z,94824.80
2018-03-17T23:45:24.610Z,94827.52
2018-03-17T23:47:52.235Z,94828.41
2018-03-17T23:50:20.016Z,94834.40
2018-03-17T23:52:49.223Z,94834.37
2018-03-17T23:55:18.843Z,94833.95
2018-03-17T23:57:46.421Z,94832.48
